sensor_id;sensor_type;location;lat;lon;timestamp;P1;durP1;ratioP1;P2;durP2;ratioP2
47455;SDS011;33202;48.512;-2.780;2023-06-14T00:01:58;32.17;;;20.50;;
47455;SDS011;33202;48.512;-2.780;2023-06-14T00:04:24;32.15;;;21.70;;
47455;SDS011;33202;48.512;-2.780;2023-06-14T00:06:50;29.83;;;19.67;;
47455;SDS011;33202;48.512;-2.780;2023-06-14T00:09:16;26.33;;;19.63;;
47455;SDS011;33202;48.512;-2.780;2023-06-14T00:11:42;29.90;;;20.30;;
47455;SDS011;33202;48.512;-2.780;2023-06-14T00:14:09;28.75;;;19.27;;
47455;SDS011;33202;48.512;-2.780;2023-06-14T00:16:35;29.42;;;20.70;;
47455;SDS011;33202;48.512;-2.780;2023-06-14T00:19:02;30.60;;;20.27;;
47455;SDS011;33202;48.512;-2.780;2023-06-14T00:21:29;30.33;;;19.75;;
47455;SDS011;33202;48.512;-2.780;2023-06-14T00:23:55;32.47;;;21.58;;
47455;SDS011;33202;48.512;-2.780;2023-06-14T00:26:21;31.17;;;20.83;;
47455;SDS011;33202;48.512;-2.780;2023-06-14T00:28:48;27.47;;;19.57;;
47455;SDS011;33202;48.512;-2.780;2023-06-14T00:31:14;29.52;;;19.95;;
47455;SDS011;33202;48.512;-2.780;2023-06-14T00:33:40;27.83;;;19.52;;
47455;SDS011;33202;48.512;-2.780;2023-06-14T00:36:06;29.95;;;19.45;;
47455;SDS011;33202;48.512;-2.780;2023-06-14T00:38:32;29.17;;;20.50;;
47455;SDS011;33202;48.512;-2.780;2023-06-14T00:40:58;31.20;;;20.73;;
47455;SDS011;33202;48.512;-2.780;2023-06-14T00:43:24;28.60;;;19.20;;
47455;SDS011;33202;48.512;-2.780;2023-06-14T00:45:50;30.05;;;20.45;;
47455;SDS011;33202;48.512;-2.780;2023-06-14T00:48:17;25.60;;;18.10;;
47455;SDS011;33202;48.512;-2.780;2023-06-14T00:50:43;26.80;;;18.80;;
47455;SDS011;33202;48.512;-2.780;2023-06-14T00:53:14;27.67;;;19.92;;
47455;SDS011;33202;48.512;-2.780;2023-06-14T00:55:42;29.63;;;19.48;;
47455;SDS011;33202;48.512;-2.780;2023-06-14T00:58:08;26.33;;;18.45;;
47455;SDS011;33202;48.512;-2.780;2023-06-14T01:00:35;28.85;;;19.77;;
47455;SDS011;33202;48.512;-2.780;2023-06-14T01:03:01;29.58;;;19.55;;
47455;SDS011;33202;48.512;-2.780;2023-06-14T01:05:27;28.92;;;19.48;;
47455;SDS011;33202;48.512;-2.780;2023-06-14T01:10:31;29.45;;;20.58;;
47455;SDS011;33202;48.512;-2.780;2023-06-14T01:15:24;32.17;;;21.58;;
47455;SDS011;33202;48.512;-2.780;2023-06-14T01:17:50;28.55;;;19.60;;
47455;SDS011;33202;48.512;-2.780;2023-06-14T01:20:17;30.90;;;20.13;;
47455;SDS011;33202;48.512;-2.780;2023-06-14T01:22:52;32.17;;;19.17;;
47455;SDS011;33202;48.512;-2.780;2023-06-14T01:25:22;29.30;;;20.27;;
47455;SDS011;33202;48.512;-2.780;2023-06-14T01:27:48;32.60;;;20.23;;
47455;SDS011;33202;48.512;-2.780;2023-06-14T01:32:41;30.52;;;20.48;;
47455;SDS011;33202;48.512;-2.780;2023-06-14T01:35:08;34.28;;;22.52;;
47455;SDS011;33202;48.512;-2.780;2023-06-14T01:37:34;32.20;;;21.63;;
47455;SDS011;33202;48.512;-2.780;2023-06-14T01:40:01;36.25;;;21.88;;
47455;SDS011;33202;48.512;-2.780;2023-06-14T01:42:28;30.65;;;20.25;;
47455;SDS011;33202;48.512;-2.780;2023-06-14T01:44:55;31.83;;;21.08;;
47455;SDS011;33202;48.512;-2.780;2023-06-14T01:47:22;34.88;;;21.80;;
47455;SDS011;33202;48.512;-2.780;2023-06-14T01:49:48;33.95;;;21.88;;
47455;SDS011;33202;48.512;-2.780;2023-06-14T01:52:14;33.15;;;20.65;;
47455;SDS011;33202;48.512;-2.780;2023-06-14T01:54:40;33.17;;;21.90;;
47455;SDS011;33202;48.512;-2.780;2023-06-14T01:57:07;33.95;;;21.65;;
47455;SDS011;33202;48.512;-2.780;2023-06-14T01:59:34;34.47;;;21.20;;
47455;SDS011;33202;48.512;-2.780;2023-06-14T02:02:01;34.17;;;22.65;;
47455;SDS011;33202;48.512;-2.780;2023-06-14T02:06:53;31.38;;;21.10;;
47455;SDS011;33202;48.512;-2.780;2023-06-14T02:09:19;32.97;;;22.65;;
47455;SDS011;33202;48.512;-2.780;2023-06-14T02:11:45;31.83;;;21.70;;
47455;SDS011;33202;48.512;-2.780;2023-06-14T02:14:11;31.03;;;21.73;;
47455;SDS011;33202;48.512;-2.780;2023-06-14T02:16:37;35.55;;;21.10;;
47455;SDS011;33202;48.512;-2.780;2023-06-14T02:19:04;32.80;;;21.63;;
47455;SDS011;33202;48.512;-2.780;2023-06-14T02:21:30;31.47;;;22.50;;
47455;SDS011;33202;48.512;-2.780;2023-06-14T02:23:56;34.53;;;22.45;;
47455;SDS011;33202;48.512;-2.780;2023-06-14T02:26:23;36.05;;;23.63;;
47455;SDS011;33202;48.512;-2.780;2023-06-14T02:28:50;33.03;;;23.20;;
47455;SDS011;33202;48.512;-2.780;2023-06-14T02:31:16;34.25;;;21.85;;
47455;SDS011;33202;48.512;-2.780;2023-06-14T02:33:43;36.00;;;22.20;;
47455;SDS011;33202;48.512;-2.780;2023-06-14T02:36:09;32.42;;;21.27;;
47455;SDS011;33202;48.512;-2.780;2023-06-14T02:38:35;31.13;;;21.25;;
47455;SDS011;33202;48.512;-2.780;2023-06-14T02:41:01;32.92;;;21.70;;
47455;SDS011;33202;48.512;-2.780;2023-06-14T02:43:28;30.87;;;21.73;;
47455;SDS011;33202;48.512;-2.780;2023-06-14T02:45:55;34.50;;;22.48;;
47455;SDS011;33202;48.512;-2.780;2023-06-14T02:48:21;35.20;;;22.13;;
47455;SDS011;33202;48.512;-2.780;2023-06-14T02:50:47;34.13;;;23.25;;
47455;SDS011;33202;48.512;-2.780;2023-06-14T02:53:13;33.88;;;22.27;;
47455;SDS011;33202;48.512;-2.780;2023-06-14T02:55:39;33.28;;;22.05;;
47455;SDS011;33202;48.512;-2.780;2023-06-14T02:58:06;36.70;;;22.95;;
47455;SDS011;33202;48.512;-2.780;2023-06-14T03:00:32;36.90;;;23.25;;
47455;SDS011;33202;48.512;-2.780;2023-06-14T03:03:00;38.08;;;24.55;;
47455;SDS011;33202;48.512;-2.780;2023-06-14T03:05:26;33.30;;;22.83;;
47455;SDS011;33202;48.512;-2.780;2023-06-14T03:07:53;36.03;;;24.43;;
47455;SDS011;33202;48.512;-2.780;2023-06-14T03:10:19;35.70;;;23.45;;
47455;SDS011;33202;48.512;-2.780;2023-06-14T03:12:47;33.38;;;22.85;;
47455;SDS011;33202;48.512;-2.780;2023-06-14T03:15:13;32.15;;;22.15;;
47455;SDS011;33202;48.512;-2.780;2023-06-14T03:17:39;32.97;;;22.77;;
47455;SDS011;33202;48.512;-2.780;2023-06-14T03:20:09;33.42;;;23.13;;
47455;SDS011;33202;48.512;-2.780;2023-06-14T03:22:35;35.00;;;23.52;;
47455;SDS011;33202;48.512;-2.780;2023-06-14T03:25:02;35.95;;;25.08;;
47455;SDS011;33202;48.512;-2.780;2023-06-14T03:27:29;33.95;;;24.13;;
47455;SDS011;33202;48.512;-2.780;2023-06-14T03:29:55;34.88;;;23.70;;
47455;SDS011;33202;48.512;-2.780;2023-06-14T03:32:21;34.85;;;23.73;;
47455;SDS011;33202;48.512;-2.780;2023-06-14T03:34:47;34.58;;;23.27;;
47455;SDS011;33202;48.512;-2.780;2023-06-14T03:37:13;35.85;;;23.45;;
47455;SDS011;33202;48.512;-2.780;2023-06-14T03:39:39;35.83;;;24.23;;
47455;SDS011;33202;48.512;-2.780;2023-06-14T03:42:11;32.92;;;22.30;;
47455;SDS011;33202;48.512;-2.780;2023-06-14T03:44:37;36.00;;;24.77;;
47455;SDS011;33202;48.512;-2.780;2023-06-14T03:47:03;32.67;;;22.27;;
47455;SDS011;33202;48.512;-2.780;2023-06-14T03:49:29;35.03;;;23.20;;
47455;SDS011;33202;48.512;-2.780;2023-06-14T03:51:55;34.75;;;23.30;;
47455;SDS011;33202;48.512;-2.780;2023-06-14T03:54:21;36.15;;;24.13;;
47455;SDS011;33202;48.512;-2.780;2023-06-14T03:56:47;33.50;;;23.10;;
47455;SDS011;33202;48.512;-2.780;2023-06-14T03:59:13;35.22;;;24.33;;
47455;SDS011;33202;48.512;-2.780;2023-06-14T04:01:39;34.65;;;24.55;;
47455;SDS011;33202;48.512;-2.780;2023-06-14T04:04:11;34.40;;;24.35;;
47455;SDS011;33202;48.512;-2.780;2023-06-14T04:06:37;31.27;;;23.45;;
47455;SDS011;33202;48.512;-2.780;2023-06-14T04:09:06;31.30;;;23.17;;
47455;SDS011;33202;48.512;-2.780;2023-06-14T04:11:32;37.33;;;23.48;;
47455;SDS011;33202;48.512;-2.780;2023-06-14T04:13:58;33.22;;;24.33;;
47455;SDS011;33202;48.512;-2.780;2023-06-14T04:16:24;33.65;;;22.40;;
47455;SDS011;33202;48.512;-2.780;2023-06-14T04:18:50;33.40;;;22.98;;
47455;SDS011;33202;48.512;-2.780;2023-06-14T04:21:17;34.72;;;24.60;;
47455;SDS011;33202;48.512;-2.780;2023-06-14T04:23:43;37.85;;;25.52;;
47455;SDS011;33202;48.512;-2.780;2023-06-14T04:26:10;39.30;;;25.70;;
47455;SDS011;33202;48.512;-2.780;2023-06-14T04:28:36;35.08;;;25.23;;
47455;SDS011;33202;48.512;-2.780;2023-06-14T04:31:06;34.05;;;23.98;;
47455;SDS011;33202;48.512;-2.780;2023-06-14T04:33:33;31.50;;;22.25;;
47455;SDS011;33202;48.512;-2.780;2023-06-14T04:36:07;31.20;;;22.20;;
47455;SDS011;33202;48.512;-2.780;2023-06-14T04:38:33;31.77;;;21.85;;
47455;SDS011;33202;48.512;-2.780;2023-06-14T04:40:59;31.23;;;21.65;;
47455;SDS011;33202;48.512;-2.780;2023-06-14T04:43:27;34.58;;;23.27;;
47455;SDS011;33202;48.512;-2.780;2023-06-14T04:45:53;33.20;;;23.67;;
47455;SDS011;33202;48.512;-2.780;2023-06-14T04:48:21;30.88;;;21.88;;
47455;SDS011;33202;48.512;-2.780;2023-06-14T04:50:47;32.33;;;22.70;;
47455;SDS011;33202;48.512;-2.780;2023-06-14T04:53:18;31.10;;;22.02;;
47455;SDS011;33202;48.512;-2.780;2023-06-14T04:55:46;30.80;;;22.50;;
47455;SDS011;33202;48.512;-2.780;2023-06-14T04:58:12;30.55;;;22.75;;
47455;SDS011;33202;48.512;-2.780;2023-06-14T05:00:38;29.30;;;21.23;;
47455;SDS011;33202;48.512;-2.780;2023-06-14T05:03:04;29.70;;;22.10;;
47455;SDS011;33202;48.512;-2.780;2023-06-14T05:05:31;28.97;;;21.50;;
47455;SDS011;33202;48.512;-2.780;2023-06-14T05:07:57;34.80;;;23.77;;
47455;SDS011;33202;48.512;-2.780;2023-06-14T05:10:24;31.23;;;23.33;;
47455;SDS011;33202;48.512;-2.780;2023-06-14T05:12:50;30.88;;;23.42;;
47455;SDS011;33202;48.512;-2.780;2023-06-14T05:17:45;30.92;;;22.17;;
47455;SDS011;33202;48.512;-2.780;2023-06-14T05:20:20;31.98;;;21.65;;
47455;SDS011;33202;48.512;-2.780;2023-06-14T05:22:47;28.95;;;21.42;;
47455;SDS011;33202;48.512;-2.780;2023-06-14T05:25:16;31.77;;;22.17;;
47455;SDS011;33202;48.512;-2.780;2023-06-14T05:27:43;30.80;;;22.15;;
47455;SDS011;33202;48.512;-2.780;2023-06-14T05:30:09;29.27;;;20.90;;
47455;SDS011;33202;48.512;-2.780;2023-06-14T05:32:35;31.55;;;22.60;;
47455;SDS011;33202;48.512;-2.780;2023-06-14T05:35:01;31.17;;;22.48;;
47455;SDS011;33202;48.512;-2.780;2023-06-14T05:37:27;31.50;;;22.15;;
47455;SDS011;33202;48.512;-2.780;2023-06-14T05:39:53;32.17;;;22.48;;
47455;SDS011;33202;48.512;-2.780;2023-06-14T05:42:19;30.25;;;21.30;;
47455;SDS011;33202;48.512;-2.780;2023-06-14T05:44:45;29.02;;;21.00;;
47455;SDS011;33202;48.512;-2.780;2023-06-14T05:47:11;32.40;;;20.73;;
47455;SDS011;33202;48.512;-2.780;2023-06-14T05:49:37;28.20;;;20.90;;
47455;SDS011;33202;48.512;-2.780;2023-06-14T05:52:03;26.60;;;20.63;;
47455;SDS011;33202;48.512;-2.780;2023-06-14T05:54:30;28.65;;;21.13;;
47455;SDS011;33202;48.512;-2.780;2023-06-14T05:56:56;29.38;;;21.55;;
47455;SDS011;33202;48.512;-2.780;2023-06-14T05:59:29;30.38;;;22.25;;
47455;SDS011;33202;48.512;-2.780;2023-06-14T06:01:55;28.95;;;21.17;;
47455;SDS011;33202;48.512;-2.780;2023-06-14T06:04:21;27.23;;;20.80;;
47455;SDS011;33202;48.512;-2.780;2023-06-14T06:06:47;29.73;;;21.20;;
47455;SDS011;33202;48.512;-2.780;2023-06-14T06:09:13;28.17;;;20.77;;
47455;SDS011;33202;48.512;-2.780;2023-06-14T06:11:39;29.58;;;20.75;;
47455;SDS011;33202;48.512;-2.780;2023-06-14T06:14:05;28.55;;;21.02;;
47455;SDS011;33202;48.512;-2.780;2023-06-14T06:16:31;25.98;;;19.80;;
47455;SDS011;33202;48.512;-2.780;2023-06-14T06:18:58;30.50;;;21.88;;
47455;SDS011;33202;48.512;-2.780;2023-06-14T06:21:24;27.90;;;19.48;;
47455;SDS011;33202;48.512;-2.780;2023-06-14T06:23:51;25.83;;;20.40;;
47455;SDS011;33202;48.512;-2.780;2023-06-14T06:26:17;26.92;;;20.15;;
47455;SDS011;33202;48.512;-2.780;2023-06-14T06:28:43;28.13;;;20.85;;
47455;SDS011;33202;48.512;-2.780;2023-06-14T06:31:09;29.90;;;21.27;;
47455;SDS011;33202;48.512;-2.780;2023-06-14T06:36:02;28.00;;;20.65;;
47455;SDS011;33202;48.512;-2.780;2023-06-14T06:38:28;30.42;;;21.35;;
47455;SDS011;33202;48.512;-2.780;2023-06-14T06:40:54;24.75;;;19.65;;
47455;SDS011;33202;48.512;-2.780;2023-06-14T06:43:21;27.30;;;20.50;;
47455;SDS011;33202;48.512;-2.780;2023-06-14T06:45:47;28.25;;;19.90;;
47455;SDS011;33202;48.512;-2.780;2023-06-14T06:48:13;26.83;;;19.65;;
47455;SDS011;33202;48.512;-2.780;2023-06-14T06:50:40;24.17;;;17.70;;
47455;SDS011;33202;48.512;-2.780;2023-06-14T06:53:06;29.77;;;20.13;;
47455;SDS011;33202;48.512;-2.780;2023-06-14T06:55:33;24.63;;;18.67;;
47455;SDS011;33202;48.512;-2.780;2023-06-14T06:57:59;24.45;;;18.00;;
47455;SDS011;33202;48.512;-2.780;2023-06-14T07:00:25;26.85;;;19.13;;
47455;SDS011;33202;48.512;-2.780;2023-06-14T07:02:51;23.48;;;17.92;;
47455;SDS011;33202;48.512;-2.780;2023-06-14T07:05:19;23.55;;;17.73;;
47455;SDS011;33202;48.512;-2.780;2023-06-14T07:07:45;24.60;;;19.05;;
47455;SDS011;33202;48.512;-2.780;2023-06-14T07:10:12;22.25;;;17.30;;
47455;SDS011;33202;48.512;-2.780;2023-06-14T07:12:38;23.05;;;17.42;;
47455;SDS011;33202;48.512;-2.780;2023-06-14T07:15:07;27.27;;;17.33;;
47455;SDS011;33202;48.512;-2.780;2023-06-14T07:17:33;26.98;;;19.00;;
47455;SDS011;33202;48.512;-2.780;2023-06-14T07:20:00;26.80;;;18.90;;
47455;SDS011;33202;48.512;-2.780;2023-06-14T07:22:36;24.10;;;17.95;;
47455;SDS011;33202;48.512;-2.780;2023-06-14T07:25:03;24.00;;;18.67;;
47455;SDS011;33202;48.512;-2.780;2023-06-14T07:27:29;24.25;;;18.27;;
47455;SDS011;33202;48.512;-2.780;2023-06-14T07:29:55;24.98;;;17.10;;
47455;SDS011;33202;48.512;-2.780;2023-06-14T07:32:20;23.58;;;17.60;;
47455;SDS011;33202;48.512;-2.780;2023-06-14T07:34:46;24.38;;;16.98;;
47455;SDS011;33202;48.512;-2.780;2023-06-14T07:37:12;30.77;;;17.27;;
47455;SDS011;33202;48.512;-2.780;2023-06-14T07:39:38;22.33;;;15.65;;
47455;SDS011;33202;48.512;-2.780;2023-06-14T07:42:04;25.48;;;17.13;;
47455;SDS011;33202;48.512;-2.780;2023-06-14T07:44:31;24.95;;;16.75;;
47455;SDS011;33202;48.512;-2.780;2023-06-14T07:46:57;22.23;;;16.00;;
47455;SDS011;33202;48.512;-2.780;2023-06-14T07:49:25;21.58;;;15.90;;
47455;SDS011;33202;48.512;-2.780;2023-06-14T07:51:51;24.98;;;17.23;;
47455;SDS011;33202;48.512;-2.780;2023-06-14T07:54:18;23.92;;;16.98;;
47455;SDS011;33202;48.512;-2.780;2023-06-14T07:56:44;23.60;;;16.75;;
47455;SDS011;33202;48.512;-2.780;2023-06-14T07:59:10;20.50;;;15.63;;
47455;SDS011;33202;48.512;-2.780;2023-06-14T08:01:36;21.88;;;15.77;;
47455;SDS011;33202;48.512;-2.780;2023-06-14T08:04:04;19.00;;;13.73;;
47455;SDS011;33202;48.512;-2.780;2023-06-14T08:06:30;20.05;;;12.68;;
47455;SDS011;33202;48.512;-2.780;2023-06-14T08:08:56;18.80;;;12.23;;
47455;SDS011;33202;48.512;-2.780;2023-06-14T08:11:22;15.93;;;12.63;;
47455;SDS011;33202;48.512;-2.780;2023-06-14T08:13:49;20.27;;;13.00;;
47455;SDS011;33202;48.512;-2.780;2023-06-14T08:16:15;21.30;;;13.75;;
47455;SDS011;33202;48.512;-2.780;2023-06-14T08:18:41;20.02;;;12.32;;
47455;SDS011;33202;48.512;-2.780;2023-06-14T08:21:07;18.33;;;11.95;;
47455;SDS011;33202;48.512;-2.780;2023-06-14T08:23:33;19.95;;;12.77;;
47455;SDS011;33202;48.512;-2.780;2023-06-14T08:25:59;19.15;;;13.05;;
47455;SDS011;33202;48.512;-2.780;2023-06-14T08:28:26;16.17;;;12.85;;
47455;SDS011;33202;48.512;-2.780;2023-06-14T08:30:52;18.77;;;11.60;;
47455;SDS011;33202;48.512;-2.780;2023-06-14T08:33:18;18.08;;;11.40;;
47455;SDS011;33202;48.512;-2.780;2023-06-14T08:35:44;19.27;;;10.15;;
47455;SDS011;33202;48.512;-2.780;2023-06-14T08:38:10;12.75;;;9.15;;
47455;SDS011;33202;48.512;-2.780;2023-06-14T08:40:37;14.93;;;9.25;;
47455;SDS011;33202;48.512;-2.780;2023-06-14T08:43:03;15.40;;;9.35;;
47455;SDS011;33202;48.512;-2.780;2023-06-14T08:45:29;16.92;;;9.25;;
47455;SDS011;33202;48.512;-2.780;2023-06-14T08:47:55;15.88;;;9.07;;
47455;SDS011;33202;48.512;-2.780;2023-06-14T08:50:25;15.95;;;9.65;;
47455;SDS011;33202;48.512;-2.780;2023-06-14T08:52:53;12.13;;;8.68;;
47455;SDS011;33202;48.512;-2.780;2023-06-14T08:55:21;15.90;;;9.48;;
47455;SDS011;33202;48.512;-2.780;2023-06-14T08:57:50;14.88;;;8.50;;
47455;SDS011;33202;48.512;-2.780;2023-06-14T09:00:17;20.00;;;8.93;;
47455;SDS011;33202;48.512;-2.780;2023-06-14T09:02:45;17.08;;;8.45;;
47455;SDS011;33202;48.512;-2.780;2023-06-14T09:05:12;13.27;;;8.52;;
47455;SDS011;33202;48.512;-2.780;2023-06-14T09:07:43;12.70;;;8.02;;
47455;SDS011;33202;48.512;-2.780;2023-06-14T09:10:13;11.33;;;8.20;;
47455;SDS011;33202;48.512;-2.780;2023-06-14T09:12:39;10.07;;;6.78;;
47455;SDS011;33202;48.512;-2.780;2023-06-14T09:15:06;13.55;;;7.32;;
47455;SDS011;33202;48.512;-2.780;2023-06-14T09:17:34;17.52;;;8.18;;
47455;SDS011;33202;48.512;-2.780;2023-06-14T09:20:01;15.43;;;8.90;;
47455;SDS011;33202;48.512;-2.780;2023-06-14T09:22:30;11.25;;;7.63;;
47455;SDS011;33202;48.512;-2.780;2023-06-14T09:24:56;12.82;;;7.30;;
47455;SDS011;33202;48.512;-2.780;2023-06-14T09:27:22;9.48;;;6.75;;
47455;SDS011;33202;48.512;-2.780;2023-06-14T09:29:48;11.93;;;7.18;;
47455;SDS011;33202;48.512;-2.780;2023-06-14T09:32:14;13.25;;;7.88;;
47455;SDS011;33202;48.512;-2.780;2023-06-14T09:34:40;12.82;;;7.35;;
47455;SDS011;33202;48.512;-2.780;2023-06-14T09:37:06;10.88;;;7.05;;
47455;SDS011;33202;48.512;-2.780;2023-06-14T09:39:32;16.42;;;6.90;;
47455;SDS011;33202;48.512;-2.780;2023-06-14T09:41:58;12.57;;;6.75;;
47455;SDS011;33202;48.512;-2.780;2023-06-14T09:44:24;13.25;;;6.68;;
47455;SDS011;33202;48.512;-2.780;2023-06-14T09:46:53;13.10;;;6.97;;
47455;SDS011;33202;48.512;-2.780;2023-06-14T09:49:21;13.75;;;6.60;;
47455;SDS011;33202;48.512;-2.780;2023-06-14T09:51:50;11.57;;;6.45;;
47455;SDS011;33202;48.512;-2.780;2023-06-14T09:54:19;10.85;;;6.95;;
47455;SDS011;33202;48.512;-2.780;2023-06-14T09:56:46;12.30;;;7.65;;
47455;SDS011;33202;48.512;-2.780;2023-06-14T09:59:14;15.55;;;7.57;;
47455;SDS011;33202;48.512;-2.780;2023-06-14T10:01:42;13.30;;;6.85;;
47455;SDS011;33202;48.512;-2.780;2023-06-14T10:04:09;12.75;;;7.57;;
47455;SDS011;33202;48.512;-2.780;2023-06-14T10:06:45;14.18;;;6.82;;
47455;SDS011;33202;48.512;-2.780;2023-06-14T10:09:11;16.38;;;7.28;;
47455;SDS011;33202;48.512;-2.780;2023-06-14T10:11:37;14.18;;;7.82;;
47455;SDS011;33202;48.512;-2.780;2023-06-14T10:14:10;12.43;;;7.95;;
47455;SDS011;33202;48.512;-2.780;2023-06-14T10:19:25;10.57;;;6.82;;
47455;SDS011;33202;48.512;-2.780;2023-06-14T10:21:58;13.05;;;6.63;;
47455;SDS011;33202;48.512;-2.780;2023-06-14T10:24:32;15.90;;;8.02;;
47455;SDS011;33202;48.512;-2.780;2023-06-14T10:26:59;16.30;;;8.05;;
47455;SDS011;33202;48.512;-2.780;2023-06-14T10:29:26;10.52;;;7.30;;
47455;SDS011;33202;48.512;-2.780;2023-06-14T10:31:57;13.25;;;7.18;;
47455;SDS011;33202;48.512;-2.780;2023-06-14T10:34:27;13.80;;;7.40;;
47455;SDS011;33202;48.512;-2.780;2023-06-14T10:37:00;10.35;;;7.07;;
47455;SDS011;33202;48.512;-2.780;2023-06-14T10:39:27;12.65;;;7.22;;
47455;SDS011;33202;48.512;-2.780;2023-06-14T10:41:54;9.45;;;7.45;;
47455;SDS011;33202;48.512;-2.780;2023-06-14T10:46:52;10.32;;;6.85;;
47455;SDS011;33202;48.512;-2.780;2023-06-14T10:49:18;11.77;;;7.05;;
47455;SDS011;33202;48.512;-2.780;2023-06-14T10:51:45;14.55;;;7.00;;
47455;SDS011;33202;48.512;-2.780;2023-06-14T10:54:17;11.50;;;7.10;;
47455;SDS011;33202;48.512;-2.780;2023-06-14T10:59:12;11.70;;;7.43;;
47455;SDS011;33202;48.512;-2.780;2023-06-14T11:01:41;14.57;;;8.18;;
47455;SDS011;33202;48.512;-2.780;2023-06-14T11:04:08;13.93;;;7.70;;
47455;SDS011;33202;48.512;-2.780;2023-06-14T11:06:44;14.43;;;9.45;;
47455;SDS011;33202;48.512;-2.780;2023-06-14T11:11:57;9.40;;;6.88;;
47455;SDS011;33202;48.512;-2.780;2023-06-14T11:14:24;10.52;;;6.68;;
47455;SDS011;33202;48.512;-2.780;2023-06-14T11:16:50;10.88;;;6.10;;
47455;SDS011;33202;48.512;-2.780;2023-06-14T11:19:16;8.20;;;6.60;;
47455;SDS011;33202;48.512;-2.780;2023-06-14T11:21:42;15.32;;;6.80;;
47455;SDS011;33202;48.512;-2.780;2023-06-14T11:24:11;14.63;;;7.07;;
47455;SDS011;33202;48.512;-2.780;2023-06-14T11:26:38;12.65;;;6.85;;
47455;SDS011;33202;48.512;-2.780;2023-06-14T11:29:04;11.43;;;7.22;;
47455;SDS011;33202;48.512;-2.780;2023-06-14T11:31:30;11.68;;;6.88;;
47455;SDS011;33202;48.512;-2.780;2023-06-14T11:33:57;11.02;;;6.90;;
47455;SDS011;33202;48.512;-2.780;2023-06-14T11:36:30;13.52;;;6.82;;
47455;SDS011;33202;48.512;-2.780;2023-06-14T11:39:00;10.02;;;7.28;;
47455;SDS011;33202;48.512;-2.780;2023-06-14T11:41:31;13.20;;;6.75;;
47455;SDS011;33202;48.512;-2.780;2023-06-14T11:43:59;10.43;;;6.97;;
47455;SDS011;33202;48.512;-2.780;2023-06-14T11:46:25;11.95;;;6.93;;
47455;SDS011;33202;48.512;-2.780;2023-06-14T11:48:51;10.95;;;6.70;;
47455;SDS011;33202;48.512;-2.780;2023-06-14T11:51:18;13.07;;;6.45;;
47455;SDS011;33202;48.512;-2.780;2023-06-14T11:53:45;9.80;;;6.28;;
47455;SDS011;33202;48.512;-2.780;2023-06-14T11:56:11;11.30;;;7.70;;
47455;SDS011;33202;48.512;-2.780;2023-06-14T11:58:37;9.73;;;7.10;;
47455;SDS011;33202;48.512;-2.780;2023-06-14T12:01:03;10.23;;;5.80;;
47455;SDS011;33202;48.512;-2.780;2023-06-14T12:03:29;9.27;;;5.83;;
47455;SDS011;33202;48.512;-2.780;2023-06-14T12:06:03;10.27;;;6.60;;
47455;SDS011;33202;48.512;-2.780;2023-06-14T12:08:32;10.98;;;7.05;;
47455;SDS011;33202;48.512;-2.780;2023-06-14T12:11:14;10.68;;;6.85;;
47455;SDS011;33202;48.512;-2.780;2023-06-14T12:13:42;13.03;;;6.47;;
47455;SDS011;33202;48.512;-2.780;2023-06-14T12:16:11;12.10;;;6.57;;
47455;SDS011;33202;48.512;-2.780;2023-06-14T12:18:38;15.40;;;6.60;;
47455;SDS011;33202;48.512;-2.780;2023-06-14T12:21:07;12.73;;;6.47;;
47455;SDS011;33202;48.512;-2.780;2023-06-14T12:26:11;7.57;;;5.30;;
47455;SDS011;33202;48.512;-2.780;2023-06-14T12:28:37;11.00;;;6.03;;
47455;SDS011;33202;48.512;-2.780;2023-06-14T12:31:05;9.43;;;5.80;;
47455;SDS011;33202;48.512;-2.780;2023-06-14T12:33:32;12.47;;;6.07;;
47455;SDS011;33202;48.512;-2.780;2023-06-14T12:35:58;11.73;;;6.35;;
47455;SDS011;33202;48.512;-2.780;2023-06-14T12:38:24;13.25;;;5.85;;
47455;SDS011;33202;48.512;-2.780;2023-06-14T12:40:50;15.00;;;6.53;;
47455;SDS011;33202;48.512;-2.780;2023-06-14T12:45:43;13.70;;;6.93;;
47455;SDS011;33202;48.512;-2.780;2023-06-14T12:48:09;11.23;;;6.47;;
47455;SDS011;33202;48.512;-2.780;2023-06-14T12:50:35;13.45;;;6.57;;
47455;SDS011;33202;48.512;-2.780;2023-06-14T12:53:01;12.50;;;6.30;;
47455;SDS011;33202;48.512;-2.780;2023-06-14T12:55:27;9.02;;;5.97;;
47455;SDS011;33202;48.512;-2.780;2023-06-14T12:57:53;9.40;;;5.93;;
47455;SDS011;33202;48.512;-2.780;2023-06-14T13:00:19;12.45;;;6.55;;
47455;SDS011;33202;48.512;-2.780;2023-06-14T13:05:12;11.43;;;6.35;;
47455;SDS011;33202;48.512;-2.780;2023-06-14T13:07:38;11.15;;;6.13;;
47455;SDS011;33202;48.512;-2.780;2023-06-14T13:10:04;10.48;;;5.78;;
47455;SDS011;33202;48.512;-2.780;2023-06-14T13:12:30;9.47;;;5.73;;
47455;SDS011;33202;48.512;-2.780;2023-06-14T13:14:56;10.25;;;6.13;;
47455;SDS011;33202;48.512;-2.780;2023-06-14T13:17:22;14.88;;;6.57;;
47455;SDS011;33202;48.512;-2.780;2023-06-14T13:19:48;11.63;;;6.72;;
47455;SDS011;33202;48.512;-2.780;2023-06-14T13:22:15;12.00;;;6.07;;
47455;SDS011;33202;48.512;-2.780;2023-06-14T13:24:41;13.50;;;6.45;;
47455;SDS011;33202;48.512;-2.780;2023-06-14T13:27:07;13.77;;;7.05;;
47455;SDS011;33202;48.512;-2.780;2023-06-14T13:29:33;10.60;;;7.07;;
47455;SDS011;33202;48.512;-2.780;2023-06-14T13:32:00;11.95;;;6.78;;
47455;SDS011;33202;48.512;-2.780;2023-06-14T13:34:26;12.80;;;6.15;;
47455;SDS011;33202;48.512;-2.780;2023-06-14T13:36:52;11.80;;;6.25;;
47455;SDS011;33202;48.512;-2.780;2023-06-14T13:39:18;13.18;;;5.95;;
47455;SDS011;33202;48.512;-2.780;2023-06-14T13:41:45;11.13;;;6.20;;
47455;SDS011;33202;48.512;-2.780;2023-06-14T13:44:11;11.20;;;7.05;;
47455;SDS011;33202;48.512;-2.780;2023-06-14T13:46:39;12.05;;;6.70;;
47455;SDS011;33202;48.512;-2.780;2023-06-14T13:49:05;8.98;;;6.63;;
47455;SDS011;33202;48.512;-2.780;2023-06-14T13:51:31;12.05;;;7.32;;
47455;SDS011;33202;48.512;-2.780;2023-06-14T13:53:58;12.23;;;6.50;;
47455;SDS011;33202;48.512;-2.780;2023-06-14T13:56:24;13.90;;;6.40;;
47455;SDS011;33202;48.512;-2.780;2023-06-14T13:58:50;18.67;;;6.72;;
47455;SDS011;33202;48.512;-2.780;2023-06-14T14:01:17;13.88;;;6.50;;
47455;SDS011;33202;48.512;-2.780;2023-06-14T14:03:48;13.32;;;7.25;;
47455;SDS011;33202;48.512;-2.780;2023-06-14T14:06:15;11.85;;;6.15;;
47455;SDS011;33202;48.512;-2.780;2023-06-14T14:08:42;12.85;;;5.70;;
47455;SDS011;33202;48.512;-2.780;2023-06-14T14:11:09;10.00;;;5.57;;
47455;SDS011;33202;48.512;-2.780;2023-06-14T14:13:35;9.93;;;5.73;;
47455;SDS011;33202;48.512;-2.780;2023-06-14T14:16:02;12.30;;;6.40;;
47455;SDS011;33202;48.512;-2.780;2023-06-14T14:18:28;11.45;;;6.45;;
47455;SDS011;33202;48.512;-2.780;2023-06-14T14:20:54;9.70;;;5.83;;
47455;SDS011;33202;48.512;-2.780;2023-06-14T14:23:21;13.63;;;5.93;;
47455;SDS011;33202;48.512;-2.780;2023-06-14T14:25:47;81.38;;;15.25;;
47455;SDS011;33202;48.512;-2.780;2023-06-14T14:28:13;14.68;;;6.28;;
47455;SDS011;33202;48.512;-2.780;2023-06-14T14:30:41;11.32;;;5.85;;
47455;SDS011;33202;48.512;-2.780;2023-06-14T14:33:07;13.13;;;5.90;;
47455;SDS011;33202;48.512;-2.780;2023-06-14T14:35:33;19.67;;;6.60;;
47455;SDS011;33202;48.512;-2.780;2023-06-14T14:37:59;10.97;;;5.93;;
47455;SDS011;33202;48.512;-2.780;2023-06-14T14:40:25;9.63;;;5.97;;
47455;SDS011;33202;48.512;-2.780;2023-06-14T14:42:51;11.93;;;5.50;;
47455;SDS011;33202;48.512;-2.780;2023-06-14T14:45:17;12.35;;;5.22;;